Time;durP1;ratioP1;P1;durP2;ratioP2;P2;SDS_P1;SDS_P2;PMS_P1;PMS_P2;Temp;Humidity;BMP_temperature;BMP_pressure;BME280_temperature;BME280_humidity;BME280_pressure;Samples;Min_cycle;Max_cycle;Signal;HPM_P1;HPM_P2
2024/04/04 00:01:28;;;;;;;0.30;0.20;;;;;;;11.09;100.00;99750.56;4997375;28;20242;-46
2024/04/04 00:03:53;;;;;;;0.30;0.20;;;;;;;11.06;100.00;99741.84;5015415;28;20263;-46
2024/04/04 00:06:19;;;;;;;0.30;0.20;;;;;;;11.09;100.00;99747.06;5015510;28;20229;-46
2024/04/04 00:08:44;;;;;;;0.30;0.20;;;;;;;11.10;100.00;99739.03;5015090;28;20296;-46
2024/04/04 00:11:11;;;;;;;0.30;0.20;;;;;;;10.84;100.00;99745.38;5015308;28;20221;-46
2024/04/04 00:13:37;;;;;;;0.80;0.80;;;;;;;10.65;100.00;99733.69;5015251;28;20641;-46
2024/04/04 00:16:03;;;;;;;0.30;0.20;;;;;;;10.75;100.00;99736.88;5015172;28;20465;-46
2024/04/04 00:18:29;;;;;;;0.30;0.20;;;;;;;10.91;100.00;99735.34;5014927;28;20471;-47
2024/04/04 00:20:54;;;;;;;0.30;0.20;;;;;;;10.73;100.00;99739.59;5014824;28;20465;-47
2024/04/04 00:23:20;;;;;;;0.30;0.20;;;;;;;10.68;100.00;99731.78;5014657;28;20275;-46
2024/04/04 00:25:47;;;;;;;0.30;0.20;;;;;;;10.50;100.00;99745.75;5014706;28;20638;-46
2024/04/04 00:28:12;;;;;;;0.30;0.20;;;;;;;10.42;100.00;99744.34;5014850;28;20827;-46
2024/04/04 00:30:38;;;;;;;0.30;0.20;;;;;;;10.42;100.00;99734.56;5014656;28;20495;-46
2024/04/04 00:33:04;;;;;;;0.30;0.20;;;;;;;10.52;100.00;99733.28;5014811;28;20233;-45
2024/04/04 00:35:29;;;;;;;0.30;0.20;;;;;;;10.46;100.00;99724.69;5014455;28;20702;-46
2024/04/04 00:37:55;;;;;;;0.30;0.20;;;;;;;10.56;100.00;99728.75;5011038;28;20294;-46
2024/04/04 00:40:20;;;;;;;0.30;0.20;;;;;;;10.76;100.00;99734.16;4995855;28;20849;-46
2024/04/04 00:42:49;;;;;;;0.30;0.20;;;;;;;10.81;100.00;99723.31;5014278;28;20248;-46
2024/04/04 00:45:15;;;;;;;0.30;0.20;;;;;;;11.00;100.00;99726.16;5014429;28;20220;-46
2024/04/04 00:47:44;;;;;;;0.30;0.20;;;;;;;11.11;100.00;99731.94;5014474;28;20465;-46
2024/04/04 00:50:10;;;;;;;0.30;0.20;;;;;;;11.07;100.00;99730.28;5014230;28;20225;-46
2024/04/04 00:52:36;;;;;;;0.30;0.20;;;;;;;11.09;100.00;99729.31;5014613;28;20547;-46
2024/04/04 00:55:03;;;;;;;0.30;0.20;;;;;;;11.06;100.00;99725.91;5013990;28;20473;-46
2024/04/04 00:57:29;;;;;;;0.30;0.20;;;;;;;11.03;100.00;99718.91;5014354;28;20214;-46
2024/04/04 00:59:56;;;;;;;0.30;0.20;;;;;;;11.17;100.00;99721.03;5002921;28;20461;-46
2024/04/04 01:02:22;;;;;;;0.30;0.20;;;;;;;11.19;100.00;99724.50;5003750;28;20494;-46
2024/04/04 01:04:47;;;;;;;0.30;0.20;;;;;;;11.21;100.00;99722.63;5014050;28;20978;-46
2024/04/04 01:07:14;;;;;;;0.30;0.20;;;;;;;11.21;100.00;99714.66;5014357;28;20225;-46
2024/04/04 01:09:40;;;;;;;0.30;0.20;;;;;;;11.36;100.00;99715.81;5014114;28;20232;-46
2024/04/04 01:12:06;;;;;;;0.30;0.20;;;;;;;11.45;100.00;99704.81;5014288;28;20452;-46
2024/04/04 01:14:32;;;;;;;0.30;0.20;;;;;;;11.39;100.00;99700.63;5014005;28;20555;-46
2024/04/04 01:16:58;;;;;;;0.30;0.20;;;;;;;11.08;100.00;99702.75;5014240;28;20236;-46
2024/04/04 01:19:23;;;;;;;0.30;0.20;;;;;;;11.44;100.00;99695.09;5013840;28;20476;-46
2024/04/04 01:21:49;;;;;;;0.30;0.20;;;;;;;11.54;100.00;99704.44;5013434;28;20837;-45
2024/04/04 01:24:15;;;;;;;0.30;0.20;;;;;;;11.49;100.00;99701.94;5013739;28;20240;-46
2024/04/04 01:26:40;;;;;;;0.30;0.20;;;;;;;11.52;100.00;99693.84;5013541;28;20264;-46
2024/04/04 01:29:06;;;;;;;0.30;0.20;;;;;;;11.53;100.00;99702.69;5013711;28;20245;-46
2024/04/04 01:31:32;;;;;;;0.30;0.20;;;;;;;11.56;100.00;99703.44;5013359;28;20236;-46
2024/04/04 01:33:57;;;;;;;0.30;0.20;;;;;;;11.41;100.00;99693.44;5013795;28;20225;-46
2024/04/04 01:36:23;;;;;;;0.30;0.20;;;;;;;11.50;100.00;99690.34;5013752;28;20378;-46
2024/04/04 01:38:48;;;;;;;0.30;0.20;;;;;;;11.36;100.00;99684.75;5002553;28;20318;-46
2024/04/04 01:41:14;;;;;;;0.30;0.20;;;;;;;11.40;100.00;99672.22;5002934;28;20616;-46
2024/04/04 01:43:40;;;;;;;0.30;0.20;;;;;;;11.59;100.00;99675.81;5013461;28;20760;-46
2024/04/04 01:46:05;;;;;;;0.30;0.20;;;;;;;11.64;100.00;99675.59;5013754;28;20221;-46
2024/04/04 01:48:31;;;;;;;0.30;0.20;;;;;;;11.51;100.00;99677.91;5013055;28;20302;-46
2024/04/04 01:50:56;;;;;;;0.30;0.20;;;;;;;11.48;100.00;99667.41;5013137;28;20213;-46
2024/04/04 01:53:22;;;;;;;0.30;0.20;;;;;;;11.59;100.00;99659.84;5013396;28;20222;-46
2024/04/04 01:55:47;;;;;;;0.30;0.20;;;;;;;11.60;100.00;99663.38;5013476;28;20218;-46
2024/04/04 01:58:13;;;;;;;0.30;0.20;;;;;;;11.54;100.00;99651.19;5012796;28;20690;-46
2024/04/04 02:00:39;;;;;;;0.30;0.20;;;;;;;11.42;100.00;99651.72;4995812;28;20214;-46
2024/04/04 02:03:04;;;;;;;0.30;0.20;;;;;;;11.42;100.00;99652.56;5008176;28;20260;-46
2024/04/04 02:05:31;;;;;;;0.30;0.20;;;;;;;11.22;100.00;99653.41;5013105;28;20841;-46
2024/04/04 02:07:57;;;;;;;0.30;0.20;;;;;;;11.41;100.00;99649.97;5012935;28;20232;-46
2024/04/04 02:10:22;;;;;;;0.30;0.20;;;;;;;11.54;100.00;99643.22;5013137;28;20555;-46
2024/04/04 02:12:48;;;;;;;0.30;0.20;;;;;;;11.55;100.00;99645.81;5012658;28;20666;-47
2024/04/04 02:15:14;;;;;;;0.30;0.20;;;;;;;11.61;100.00;99654.44;5012947;28;20226;-46
2024/04/04 02:17:40;;;;;;;0.30;0.20;;;;;;;11.68;100.00;99654.13;5012466;28;20222;-46
2024/04/04 02:20:10;;;;;;;0.30;0.20;;;;;;;11.78;100.00;99642.13;4997183;28;20464;-46
2024/04/04 02:22:37;;;;;;;0.30;0.20;;;;;;;11.79;100.00;99643.06;5012323;28;20496;-47
2024/04/04 02:25:04;;;;;;;0.30;0.20;;;;;;;11.86;100.00;99645.34;5012777;28;20210;-46
2024/04/04 02:27:32;;;;;;;0.30;0.20;;;;;;;11.78;100.00;99633.28;5012698;28;20465;-46
2024/04/04 02:29:58;;;;;;;0.30;0.20;;;;;;;11.89;100.00;99632.84;5012495;28;20443;-46
2024/04/04 02:32:23;;;;;;;0.30;0.20;;;;;;;12.11;100.00;99625.63;5012282;28;20459;-46
2024/04/04 02:34:49;;;;;;;0.30;0.20;;;;;;;12.27;100.00;99631.09;5012732;28;20308;-46
2024/04/04 02:37:14;;;;;;;0.30;0.20;;;;;;;12.37;100.00;99632.41;5012118;28;20636;-46
2024/04/04 02:39:40;;;;;;;0.30;0.20;;;;;;;12.35;100.00;99626.28;4994834;28;20218;-46
2024/04/04 02:42:06;;;;;;;0.30;0.20;;;;;;;12.63;100.00;99631.19;5008475;28;20314;-46
2024/04/04 02:44:33;;;;;;;0.30;0.20;;;;;;;12.58;100.00;99630.53;5012475;28;20620;-47
2024/04/04 02:46:59;;;;;;;0.30;0.20;;;;;;;12.51;100.00;99631.78;5012247;28;20222;-46
2024/04/04 02:49:25;;;;;;;0.30;0.20;;;;;;;12.64;100.00;99635.59;5012320;28;20482;-46
2024/04/04 02:51:50;;;;;;;0.30;0.20;;;;;;;12.67;100.00;99628.31;5011992;28;20914;-45
2024/04/04 02:54:15;;;;;;;0.30;0.20;;;;;;;12.61;100.00;99625.03;5012317;28;20225;-46
2024/04/04 02:56:41;;;;;;;0.30;0.20;;;;;;;13.04;100.00;99629.19;5011930;28;20301;-46
2024/04/04 02:59:06;;;;;;;0.30;0.20;;;;;;;12.90;100.00;99624.53;5006981;28;20737;-46
2024/04/04 03:01:33;;;;;;;0.40;0.20;;;;;;;12.80;100.00;99617.03;4994781;28;20234;-46
2024/04/04 03:03:58;;;;;;;0.30;0.20;;;;;;;12.92;100.00;99616.44;5011945;28;20252;-47
2024/04/04 03:06:24;;;;;;;0.30;0.20;;;;;;;12.80;100.00;99619.72;5011667;28;20559;-45
2024/04/04 03:08:49;;;;;;;0.30;0.20;;;;;;;12.88;100.00;99620.19;5011556;28;20300;-46
2024/04/04 03:11:15;;;;;;;0.30;0.20;;;;;;;12.98;100.00;99613.47;5011333;28;20241;-46
2024/04/04 03:13:40;;;;;;;0.30;0.20;;;;;;;13.02;100.00;99621.25;5011929;28;20221;-45
2024/04/04 03:16:06;;;;;;;0.30;0.20;;;;;;;13.21;100.00;99607.91;5011655;28;20217;-46
2024/04/04 03:18:32;;;;;;;0.30;0.20;;;;;;;13.27;100.00;99610.25;5011519;28;20220;-46
2024/04/04 03:20:57;;;;;;;0.30;0.20;;;;;;;13.00;100.00;99614.25;5011197;28;20217;-45
2024/04/04 03:23:23;;;;;;;0.30;0.20;;;;;;;13.33;100.00;99617.09;5011567;28;20230;-46
2024/04/04 03:25:48;;;;;;;0.30;0.20;;;;;;;13.44;100.00;99612.06;5011579;28;20226;-45
2024/04/04 03:28:14;;;;;;;0.30;0.20;;;;;;;13.53;100.00;99608.03;5010865;28;20224;-46
2024/04/04 03:30:40;;;;;;;5.93;4.83;;;;;;;13.61;100.00;99601.38;5011542;28;20260;-46
2024/04/04 03:33:05;;;;;;;0.30;0.20;;;;;;;13.57;100.00;99618.50;5011521;28;20233;-46
2024/04/04 03:35:31;;;;;;;0.30;0.20;;;;;;;13.64;100.00;99611.03;5011459;28;20476;-46
2024/04/04 03:37:56;;;;;;;0.30;0.20;;;;;;;13.76;100.00;99601.53;5007884;28;20276;-46
2024/04/04 03:40:22;;;;;;;0.30;0.20;;;;;;;13.88;100.00;99611.56;4992689;28;20222;-46
2024/04/04 03:42:47;;;;;;;0.30;0.20;;;;;;;13.92;100.00;99607.78;5011267;28;20242;-47
2024/04/04 03:45:13;;;;;;;0.30;0.20;;;;;;;14.07;100.00;99601.59;5011429;28;20676;-46
2024/04/04 03:47:39;;;;;;;0.30;0.20;;;;;;;13.98;100.00;99594.09;5011222;28;20235;-46
2024/04/04 03:50:05;;;;;;;0.30;0.20;;;;;;;14.09;100.00;99593.50;5010835;28;20221;-45
2024/04/04 03:52:30;;;;;;;0.30;0.20;;;;;;;14.11;100.00;99599.63;5011376;28;20238;-46
2024/04/04 03:54:57;;;;;;;0.30;0.20;;;;;;;13.93;100.00;99591.66;5011221;28;20217;-46
2024/04/04 03:57:23;;;;;;;0.30;0.20;;;;;;;13.96;100.00;99584.41;5011629;28;20655;-45
2024/04/04 03:59:48;;;;;;;0.30;0.20;;;;;;;14.08;100.00;99581.09;5000640;28;20549;-45
2024/04/04 04:02:14;;;;;;;0.30;0.20;;;;;;;13.72;100.00;99583.94;4999575;28;20493;-46
2024/04/04 04:04:40;;;;;;;0.30;0.20;;;;;;;14.05;100.00;99595.47;5011065;28;20225;-46
2024/04/04 04:07:05;;;;;;;0.30;0.20;;;;;;;13.92;100.00;99591.75;5011250;28;20221;-47
2024/04/04 04:09:31;;;;;;;0.30;0.20;;;;;;;13.90;100.00;99589.16;5010969;28;20839;-46
2024/04/04 04:11:57;;;;;;;0.30;0.20;;;;;;;14.03;100.00;99586.69;5011143;28;20698;-46
2024/04/04 04:14:22;;;;;;;0.30;0.20;;;;;;;13.88;100.00;99583.03;5011176;28;20225;-46
2024/04/04 04:16:48;;;;;;;0.30;0.20;;;;;;;13.96;100.00;99579.94;5011163;28;20288;-46
2024/04/04 04:19:14;;;;;;;0.30;0.20;;;;;;;13.89;100.00;99582.09;5010705;28;20214;-46
2024/04/04 04:21:40;;;;;;;0.30;0.20;;;;;;;13.86;100.00;99584.94;5010863;28;20257;-46
2024/04/04 04:24:06;;;;;;;0.30;0.20;;;;;;;13.85;100.00;99579.66;5010934;28;20824;-46
2024/04/04 04:26:32;;;;;;;0.30;0.20;;;;;;;13.98;100.00;99585.19;5011079;28;20222;-46
2024/04/04 04:28:58;;;;;;;0.30;0.20;;;;;;;14.15;100.00;99588.69;5010903;28;20519;-46
2024/04/04 04:31:35;;;;;;;0.30;0.20;;;;;;;14.11;100.00;99586.25;5011061;28;20481;-46
2024/04/04 04:34:03;;;;;;;0.30;0.20;;;;;;;14.19;100.00;99590.25;5010932;28;20464;-46
2024/04/04 04:36:37;;;;;;;0.30;0.20;;;;;;;14.15;100.00;99594.03;5010986;28;20460;-47
2024/04/04 04:39:02;;;;;;;0.30;0.20;;;;;;;14.21;100.00;99599.03;4998730;28;20465;-47
2024/04/04 04:41:28;;;;;;;0.30;0.20;;;;;;;14.28;100.00;99598.72;5005629;28;20976;-46
2024/04/04 04:43:54;;;;;;;0.30;0.20;;;;;;;14.36;100.00;99599.16;5014686;28;20226;-45
2024/04/04 04:46:20;;;;;;;0.30;0.20;;;;;;;14.08;100.00;99602.47;5014287;28;20564;-46
2024/04/04 04:48:46;;;;;;;0.30;0.20;;;;;;;14.42;100.00;99597.00;5014333;28;20221;-47
2024/04/04 04:51:12;;;;;;;0.30;0.20;;;;;;;14.10;100.00;99595.22;5014364;28;20463;-47
2024/04/04 04:53:40;;;;;;;0.30;0.20;;;;;;;14.16;100.00;99600.25;5014286;28;20518;-46
2024/04/04 04:56:06;;;;;;;0.30;0.20;;;;;;;14.13;100.00;99587.06;5014100;28;20968;-46
2024/04/04 04:58:32;;;;;;;0.30;0.20;;;;;;;14.14;100.00;99588.78;5013895;28;20552;-47
2024/04/04 05:00:58;;;;;;;0.30;0.20;;;;;;;14.11;100.00;99596.94;4994822;28;20823;-46
2024/04/04 05:03:24;;;;;;;0.30;0.20;;;;;;;14.31;100.00;99588.72;5011694;28;20467;-46
2024/04/04 05:05:51;;;;;;;0.30;0.20;;;;;;;14.18;100.00;99585.84;5014280;28;20260;-46
2024/04/04 05:08:17;;;;;;;0.30;0.20;;;;;;;14.24;100.00;99587.31;5013724;28;20471;-46
2024/04/04 05:10:43;;;;;;;0.30;0.20;;;;;;;14.11;100.00;99573.75;5014028;28;20464;-46
2024/04/04 05:13:09;;;;;;;0.30;0.20;;;;;;;14.35;100.00;99578.72;5013694;28;20586;-47
2024/04/04 05:15:51;;;;;;;0.30;0.20;;;;;;;14.18;100.00;99568.94;4997120;28;20217;-46
2024/04/04 05:18:17;;;;;;;0.30;0.20;;;;;;;14.15;100.00;99572.66;5014220;28;20217;-46
2024/04/04 05:20:43;;;;;;;0.30;0.20;;;;;;;14.27;100.00;99571.13;5013671;28;20657;-47
2024/04/04 05:23:09;;;;;;;0.30;0.20;;;;;;;14.28;100.00;99556.81;5013458;28;20720;-46
2024/04/04 05:25:34;;;;;;;0.30;0.20;;;;;;;14.36;100.00;99559.91;5013654;28;20539;-47
2024/04/04 05:28:00;;;;;;;0.30;0.20;;;;;;;14.30;100.00;99556.72;5013910;28;20222;-45
2024/04/04 05:30:26;;;;;;;0.30;0.20;;;;;;;14.46;100.00;99549.59;5013424;28;20221;-45
2024/04/04 05:32:52;;;;;;;0.30;0.20;;;;;;;14.24;100.00;99548.06;5013807;28;20229;-46
2024/04/04 05:35:17;;;;;;;0.30;0.20;;;;;;;14.23;100.00;99545.50;5013655;28;20495;-46
2024/04/04 05:37:43;;;;;;;0.30;0.20;;;;;;;14.36;100.00;99543.00;5011277;28;20753;-46
2024/04/04 05:40:09;;;;;;;0.30;0.20;;;;;;;14.22;100.00;99551.78;4994139;28;20214;-46
2024/04/04 05:42:36;;;;;;;0.30;0.20;;;;;;;14.19;100.00;99546.63;5012512;28;20626;-45
2024/04/04 05:45:02;;;;;;;0.30;0.20;;;;;;;14.14;100.00;99546.03;5013426;28;20439;-46
2024/04/04 05:47:28;;;;;;;0.30;0.20;;;;;;;14.22;100.00;99543.78;5013158;28;20972;-47
2024/04/04 05:49:54;;;;;;;0.30;0.20;;;;;;;14.35;100.00;99541.28;5012904;28;20432;-47
2024/04/04 05:52:20;;;;;;;0.30;0.20;;;;;;;14.51;100.00;99547.50;5012380;28;20347;-47
2024/04/04 05:54:53;;;;;;;0.30;0.20;;;;;;;14.31;100.00;99540.59;5013064;28;20471;-47
2024/04/04 05:57:19;;;;;;;0.30;0.20;;;;;;;14.50;100.00;99535.94;5013027;28;20472;-47
2024/04/04 05:59:45;;;;;;;0.30;0.20;;;;;;;14.34;100.00;99534.22;5002878;28;20461;-47
2024/04/04 06:02:11;;;;;;;0.30;0.20;;;;;;;14.43;100.00;99534.56;5001309;28;20295;-46
2024/04/04 06:04:37;;;;;;;0.30;0.20;;;;;;;14.46;100.00;99520.19;5012758;28;20444;-47
2024/04/04 06:07:03;;;;;;;0.30;0.20;;;;;;;14.47;100.00;99525.44;5013133;28;20221;-47
2024/04/04 06:09:29;;;;;;;0.30;0.20;;;;;;;14.45;100.00;99519.31;4999927;28;20499;-48
2024/04/04 06:11:55;;;;;;;0.30;0.20;;;;;;;14.35;100.00;99519.88;5012897;28;20320;-47
2024/04/04 06:14:21;;;;;;;0.30;0.20;;;;;;;14.50;100.00;99527.94;5012828;28;20225;-47
2024/04/04 06:16:46;;;;;;;0.33;0.20;;;;;;;14.32;100.00;99526.28;5012948;28;20226;-47
2024/04/04 06:19:12;;;;;;;0.30;0.20;;;;;;;14.41;100.00;99524.91;5012926;28;20954;-47
2024/04/04 06:21:38;;;;;;;0.30;0.20;;;;;;;14.57;100.00;99519.56;5012623;28;20238;-48
2024/04/04 06:24:03;;;;;;;0.30;0.20;;;;;;;14.49;100.00;99514.66;5012320;28;20233;-48
2024/04/04 06:26:29;;;;;;;0.30;0.20;;;;;;;14.27;100.00;99520.34;5012773;28;20226;-47
2024/04/04 06:28:55;;;;;;;0.30;0.20;;;;;;;14.47;100.00;99528.13;5012733;28;20210;-47
2024/04/04 06:31:22;;;;;;;0.30;0.20;;;;;;;14.48;100.00;99521.81;4996338;28;20245;-48
2024/04/04 06:33:47;;;;;;;0.30;0.20;;;;;;;14.45;100.00;99518.47;5012425;28;20528;-47
2024/04/04 06:36:13;;;;;;;0.30;0.20;;;;;;;14.56;100.00;99521.38;5012532;28;20464;-47
2024/04/04 06:38:40;;;;;;;0.30;0.20;;;;;;;14.70;100.00;99525.94;5002666;28;20591;-48
2024/04/04 06:41:05;;;;;;;0.30;0.20;;;;;;;14.65;100.00;99517.31;5000981;28;20229;-47
2024/04/04 06:43:31;;;;;;;0.30;0.20;;;;;;;14.45;100.00;99518.47;5011858;28;20583;-45
2024/04/04 06:45:57;;;;;;;0.30;0.20;;;;;;;14.70;100.00;99529.47;5012208;28;20699;-45
2024/04/04 06:48:22;;;;;;;0.30;0.20;;;;;;;14.52;100.00;99522.50;5012273;28;20224;-45
2024/04/04 06:50:48;;;;;;;0.30;0.20;;;;;;;14.50;100.00;99525.25;5012286;28;20725;-46
2024/04/04 06:53:13;;;;;;;0.30;0.20;;;;;;;14.46;100.00;99526.38;5012021;28;20237;-46
2024/04/04 06:55:39;;;;;;;0.30;0.20;;;;;;;14.51;100.00;99515.41;5011899;28;20213;-46
2024/04/04 06:58:04;;;;;;;0.30;0.20;;;;;;;14.77;100.00;99522.81;5012104;28;20268;-45
2024/04/04 07:00:30;;;;;;;0.30;0.20;;;;;;;14.75;100.00;99514.00;4996058;28;20207;-46
2024/04/04 07:02:55;;;;;;;0.30;0.20;;;;;;;14.94;100.00;99519.16;5005747;28;20264;-45
2024/04/04 07:05:23;;;;;;;0.30;0.20;;;;;;;14.86;100.00;99517.88;5011851;28;20213;-46
2024/04/04 07:07:48;;;;;;;0.30;0.20;;;;;;;14.94;100.00;99519.16;5011780;28;20630;-46
2024/04/04 07:10:14;;;;;;;0.30;0.20;;;;;;;14.90;100.00;99516.75;5012152;28;20531;-46
2024/04/04 07:12:39;;;;;;;0.30;0.20;;;;;;;14.96;100.00;99517.25;5011826;28;20240;-45
2024/04/04 07:15:05;;;;;;;0.30;0.20;;;;;;;15.09;100.00;99520.94;5011915;28;20209;-45
2024/04/04 07:17:30;;;;;;;0.30;0.20;;;;;;;15.07;100.00;99522.81;5011845;28;20268;-46
2024/04/04 07:19:57;;;;;;;0.30;0.20;;;;;;;15.00;100.00;99513.44;5011782;28;20209;-47
2024/04/04 07:22:22;;;;;;;0.30;0.20;;;;;;;15.19;100.00;99518.56;5011357;28;20264;-46
2024/04/04 07:24:48;;;;;;;0.30;0.20;;;;;;;15.04;100.00;99517.66;5011720;28;20939;-45
2024/04/04 07:27:14;;;;;;;0.30;0.20;;;;;;;15.08;100.00;99508.50;5011596;28;20753;-45
2024/04/04 07:29:42;;;;;;;0.30;0.20;;;;;;;15.14;100.00;99525.16;5011859;28;20443;-46
2024/04/04 07:32:08;;;;;;;0.30;0.20;;;;;;;15.35;100.00;99522.06;5011380;28;20229;-45
2024/04/04 07:34:35;;;;;;;0.30;0.20;;;;;;;14.98;100.00;99525.19;5011706;28;20435;-46
2024/04/04 07:37:01;;;;;;;0.30;0.20;;;;;;;15.00;100.00;99516.13;5011344;28;20443;-46
2024/04/04 07:39:27;;;;;;;0.30;0.20;;;;;;;15.09;100.00;99520.06;4995453;28;20463;-49
2024/04/04 07:41:53;;;;;;;0.30;0.20;;;;;;;15.32;100.00;99518.69;5005541;28;20243;-45
2024/04/04 07:44:19;;;;;;;0.30;0.20;;;;;;;15.31;100.00;99511.59;5011388;28;20229;-47
2024/04/04 07:46:44;;;;;;;0.30;0.20;;;;;;;15.17;100.00;99515.09;5011321;28;20519;-46
2024/04/04 07:49:10;;;;;;;0.40;0.20;;;;;;;15.22;100.00;99513.03;5011713;28;20228;-47
2024/04/04 07:51:36;;;;;;;0.30;0.20;;;;;;;15.27;100.00;99513.59;5011312;28;20279;-46
2024/04/04 07:54:03;;;;;;;0.30;0.20;;;;;;;15.40;100.00;99513.72;5011608;28;20226;-46
2024/04/04 07:56:29;;;;;;;0.30;0.20;;;;;;;15.30;100.00;99515.22;5011239;28;20510;-46
2024/04/04 07:58:54;;;;;;;0.30;0.20;;;;;;;15.17;100.00;99515.09;5007684;28;20462;-45
2024/04/04 08:01:21;;;;;;;0.30;0.20;;;;;;;15.29;100.00;99511.69;4992529;28;20488;-46
2024/04/04 08:03:48;;;;;;;0.30;0.20;;;;;;;15.29;100.00;99510.84;5011250;28;20220;-46
2024/04/04 08:06:14;;;;;;;0.30;0.20;;;;;;;14.99;100.00;99517.06;5011011;28;20952;-46
2024/04/04 08:08:41;;;;;;;0.30;0.20;;;;;;;15.21;100.00;99511.28;5003479;28;20436;-47
2024/04/04 08:11:07;;;;;;;0.30;0.20;;;;;;;15.13;100.00;99513.56;5005810;28;20718;-46
2024/04/04 08:13:33;;;;;;;0.30;0.20;;;;;;;15.46;100.00;99516.03;5011235;28;20456;-46
2024/04/04 08:15:58;;;;;;;0.30;0.20;;;;;;;15.46;100.00;99510.66;5015022;28;20471;-46
2024/04/04 08:18:24;;;;;;;0.30;0.20;;;;;;;15.50;100.00;99504.19;5014705;28;20218;-47
2024/04/04 08:20:49;;;;;;;0.30;0.20;;;;;;;15.54;100.00;99512.88;5014854;28;20229;-46
2024/04/04 08:23:15;;;;;;;0.30;0.20;;;;;;;15.37;100.00;99512.09;5014719;28;20237;-46
2024/04/04 08:25:51;;;;;;;0.30;0.20;;;;;;;15.41;99.92;99510.09;5014478;28;20701;-46
2024/04/04 08:28:16;;;;;;;0.30;0.20;;;;;;;15.25;100.00;99522.69;5014946;28;20213;-47
2024/04/04 08:30:42;;;;;;;0.30;0.20;;;;;;;15.38;100.00;99526.34;5014799;28;20487;-46
2024/04/04 08:33:07;;;;;;;0.30;0.20;;;;;;;15.63;99.34;99525.75;4998846;28;20603;-46
2024/04/04 08:35:33;;;;;;;0.30;0.20;;;;;;;15.44;99.54;99520.63;5014585;28;20307;-46
2024/04/04 08:37:59;;;;;;;0.30;0.20;;;;;;;15.66;99.38;99529.09;5010534;28;20226;-46
2024/04/04 08:40:24;;;;;;;0.30;0.20;;;;;;;15.54;98.29;99523.59;4998266;28;20447;-46
2024/04/04 08:42:50;;;;;;;0.30;0.20;;;;;;;15.50;98.10;99538.16;5018585;28;20245;-46
2024/04/04 08:45:19;;;;;;;0.30;0.20;;;;;;;15.49;98.86;99539.06;5019503;28;20213;-47
2024/04/04 08:47:45;;;;;;;0.30;0.20;;;;;;;15.39;98.33;99541.47;5020300;28;20214;-47
2024/04/04 08:50:13;;;;;;;0.30;0.20;;;;;;;15.60;99.15;99545.53;5020048;28;20447;-46
2024/04/04 08:52:38;;;;;;;0.30;0.20;;;;;;;15.67;98.68;99549.59;5019549;28;20484;-46
2024/04/04 08:55:05;;;;;;;0.30;0.20;;;;;;;15.76;98.15;99544.59;5019593;28;20435;-46
2024/04/04 08:57:33;;;;;;;0.30;0.20;;;;;;;16.01;97.07;99560.88;5020042;28;20226;-47
2024/04/04 09:00:00;;;;;;;0.30;0.20;;;;;;;15.65;97.44;99554.19;5007057;28;20776;-46
2024/04/04 09:02:26;;;;;;;0.30;0.20;;;;;;;15.44;98.91;99546.53;5009082;28;20500;-46
2024/04/04 09:05:03;;;;;;;0.30;0.20;;;;;;;15.39;99.63;99558.41;5015073;28;20925;-47
2024/04/04 09:07:29;;;;;;;0.30;0.20;;;;;;;15.45;99.51;99559.84;5014607;28;20435;-46
2024/04/04 09:09:54;;;;;;;0.30;0.20;;;;;;;15.59;100.00;99567.03;5013755;28;20493;-46
2024/04/04 09:12:20;;;;;;;0.30;0.20;;;;;;;15.50;100.00;99576.50;5014167;28;20463;-46
2024/04/04 09:15:01;;;;;;;0.30;0.20;;;;;;;15.46;98.42;99572.28;5014239;28;20275;-47
2024/04/04 09:17:27;;;;;;;0.30;0.20;;;;;;;15.48;98.51;99575.72;5014430;28;20225;-46
2024/04/04 09:19:56;;;;;;;0.30;0.20;;;;;;;15.46;95.58;99593.69;5014213;28;20435;-46
2024/04/04 09:22:24;;;;;;;0.30;0.20;;;;;;;15.49;94.59;99582.81;5014036;28;20467;-47
2024/04/04 09:24:50;;;;;;;0.30;0.20;;;;;;;15.43;94.01;99566.25;5014402;28;20476;-46
2024/04/04 09:27:19;;;;;;;0.30;0.20;;;;;;;15.47;94.02;99575.81;5014052;28;20547;-46
2024/04/04 09:29:46;;;;;;;0.30;0.20;;;;;;;15.51;92.30;99574.69;5013921;28;20604;-46
2024/04/04 09:32:17;;;;;;;0.30;0.20;;;;;;;15.83;91.02;99580.78;5013738;28;20492;-46
2024/04/04 09:34:43;;;;;;;0.30;0.20;;;;;;;15.81;89.92;99593.44;5013944;28;20468;-46
2024/04/04 09:37:08;;;;;;;0.30;0.20;;;;;;;15.82;88.13;99584.44;5013793;28;20851;-46
2024/04/04 09:39:35;;;;;;;0.30;0.20;;;;;;;16.00;86.13;99588.66;4996497;28;20279;-46
2024/04/04 09:42:03;;;;;;;0.30;0.20;;;;;;;16.26;86.21;99569.09;5007459;28;20726;-46
2024/04/04 09:44:31;;;;;;;0.30;0.20;;;;;;;16.45;85.77;99578.69;5013462;28;20454;-47
2024/04/04 09:46:58;;;;;;;0.30;0.20;;;;;;;16.54;84.67;99575.38;5013167;28;20443;-46
2024/04/04 09:49:26;;;;;;;0.30;0.20;;;;;;;16.67;84.36;99579.03;5013194;28;20950;-46
2024/04/04 09:51:53;;;;;;;0.30;0.20;;;;;;;16.69;84.21;99584.28;5012760;28;20841;-46
2024/04/04 09:54:20;;;;;;;0.30;0.20;;;;;;;17.07;84.75;99581.78;5013263;28;20446;-46
2024/04/04 09:56:47;;;;;;;0.30;0.20;;;;;;;16.85;84.52;99587.69;5012929;28;20483;-46
2024/04/04 09:59:13;;;;;;;0.30;0.20;;;;;;;16.88;84.94;99591.06;5007150;28;20976;-46
2024/04/04 10:01:38;;;;;;;0.30;0.20;;;;;;;16.94;85.44;99589.78;4996684;28;20480;-46
2024/04/04 10:04:05;;;;;;;0.30;0.20;;;;;;;16.90;84.08;99590.09;5013205;28;20218;-46
2024/04/04 10:06:38;;;;;;;0.30;0.20;;;;;;;16.90;84.41;99599.00;5013006;28;20225;-46
2024/04/04 10:09:28;;;;;;;0.30;0.20;;;;;;;17.15;83.83;99600.94;5013069;28;20439;-46
2024/04/04 10:11:54;;;;;;;0.30;0.20;;;;;;;17.10;84.82;99600.34;5013197;28;20455;-46
2024/04/04 10:14:21;;;;;;;0.30;0.20;;;;;;;17.13;85.93;99600.16;5012787;28;20460;-46
2024/04/04 10:16:50;;;;;;;0.30;0.20;;;;;;;16.92;85.45;99610.50;5013098;28;20440;-46
2024/04/04 10:19:20;;;;;;;0.30;0.20;;;;;;;16.64;86.66;99602.50;5012876;28;20526;-46
2024/04/04 10:21:47;;;;;;;0.30;0.20;;;;;;;16.72;85.95;99597.50;5012814;28;20462;-46
2024/04/04 10:24:29;;;;;;;0.30;0.20;;;;;;;16.47;85.20;99603.59;5012696;28;20443;-47
2024/04/04 10:26:57;;;;;;;0.30;0.20;;;;;;;16.68;87.80;99601.34;5012528;28;20472;-46
2024/04/04 10:29:30;;;;;;;0.30;0.20;;;;;;;16.64;87.52;99614.09;5012381;28;20815;-46
2024/04/04 10:31:56;;;;;;;0.30;0.20;;;;;;;16.63;87.40;99617.72;5012454;28;20452;-47
2024/04/04 10:34:22;;;;;;;0.30;0.20;;;;;;;16.67;88.39;99615.69;5012414;28;20439;-46
2024/04/04 10:36:48;;;;;;;0.30;0.20;;;;;;;16.80;88.07;99624.72;5011842;28;20443;-46
2024/04/04 10:39:16;;;;;;;0.30;0.20;;;;;;;16.37;87.55;99629.25;4998114;28;20393;-47
2024/04/04 10:41:44;;;;;;;0.30;0.20;;;;;;;16.32;88.31;99613.47;4988342;28;20241;-47
2024/04/04 10:44:20;;;;;;;0.30;0.20;;;;;;;16.37;86.28;99627.44;5012402;28;20440;-46
2024/04/04 10:46:51;;;;;;;0.30;0.20;;;;;;;16.11;88.87;99631.75;5011893;28;20435;-47
2024/04/04 10:49:19;;;;;;;0.30;0.20;;;;;;;15.83;91.51;99635.25;5012722;28;20800;-46
2024/04/04 10:51:47;;;;;;;0.30;0.20;;;;;;;16.03;92.04;99646.56;5012171;28;20558;-46
2024/04/04 10:54:13;;;;;;;0.30;0.20;;;;;;;15.76;91.98;99647.31;5012528;28;20460;-47
2024/04/04 10:56:39;;;;;;;0.30;0.20;;;;;;;15.62;94.04;99645.47;4995956;28;21007;-46
2024/04/04 10:59:04;;;;;;;0.30;0.20;;;;;;;15.44;95.31;99642.97;5007436;28;20222;-46
2024/04/04 11:01:32;;;;;;;0.30;0.20;;;;;;;15.44;100.00;99634.94;4978493;28;20692;-47
2024/04/04 11:03:59;;;;;;;0.30;0.20;;;;;;;15.21;100.00;99641.63;5012182;28;20210;-47
2024/04/04 11:06:29;;;;;;;0.30;0.20;;;;;;;14.93;100.00;99645.88;5012945;28;20465;-47
2024/04/04 11:08:55;;;;;;;0.30;0.20;;;;;;;14.70;100.00;99657.03;5012199;28;20439;-46
2024/04/04 11:11:23;;;;;;;0.30;0.20;;;;;;;14.57;100.00;99658.66;5011480;28;20484;-47
2024/04/04 11:13:49;;;;;;;0.30;0.20;;;;;;;14.64;100.00;99652.88;5011975;28;20439;-47
2024/04/04 11:16:16;;;;;;;0.30;0.20;;;;;;;14.48;100.00;99655.53;5011894;28;20849;-46
2024/04/04 11:18:43;;;;;;;0.30;0.20;;;;;;;14.64;100.00;99655.53;5011711;28;20494;-47
2024/04/04 11:21:09;;;;;;;0.30;0.20;;;;;;;14.41;100.00;99661.28;5011564;28;20468;-47
2024/04/04 11:23:35;;;;;;;0.30;0.20;;;;;;;14.46;100.00;99654.75;5011560;28;20987;-47